Time;durP1;ratioP1;P1;durP2;ratioP2;P2;SDS_P1;SDS_P2;PMS_P1;PMS_P2;Temp;Humidity;BMP_temperature;BMP_pressure;BME280_temperature;BME280_humidity;BME280_pressure;Samples;Min_cycle;Max_cycle;Signal;HPM_P1;HPM_P2
2023/06/18 00:01:09;;;;;;;7.55;4.70;;;;;;;;;;12974689;19;20039;-61
2023/06/18 00:05:46;;;;;;;5.30;3.83;;;;;;;;;;12974672;19;20718;-61
2023/06/18 00:10:05;;;;;;;5.97;4.60;;;;;;;;;;12975023;19;20018;-61
2023/06/18 00:14:24;;;;;;;5.85;4.35;;;;;;;;;;12975228;19;20035;-60
2023/06/18 00:18:42;;;;;;;8.13;4.40;;;;;;;;;;12977842;19;20044;-61
2023/06/18 00:23:00;;;;;;;6.60;4.82;;;;;;;;;;12987818;19;20897;-61
2023/06/18 00:27:20;;;;;;;5.03;4.45;;;;;;;;;;12987070;19;20020;-61
2023/06/18 00:31:38;;;;;;;8.38;5.43;;;;;;;;;;12987331;19;20014;-61
2023/06/18 00:35:59;;;;;;;6.67;4.03;;;;;;;;;;12984718;19;20026;-61
2023/06/18 00:40:17;;;;;;;6.10;4.68;;;;;;;;;;12986441;19;20010;-61
2023/06/18 00:44:39;;;;;;;7.50;4.90;;;;;;;;;;12985379;19;20019;-61
2023/06/18 00:48:58;;;;;;;6.78;4.75;;;;;;;;;;12986016;19;20906;-61
2023/06/18 00:53:17;;;;;;;7.03;4.35;;;;;;;;;;12985105;19;20038;-60
2023/06/18 00:57:37;;;;;;;7.53;4.80;;;;;;;;;;12984782;19;20037;-60
2023/06/18 01:01:56;;;;;;;6.15;4.40;;;;;;;;;;12986823;19;20015;-60
2023/06/18 01:06:17;;;;;;;6.55;4.65;;;;;;;;;;12987015;19;20090;-59
2023/06/18 01:10:39;;;;;;;6.78;5.05;;;;;;;;;;12984054;19;20090;-59
2023/06/18 01:14:57;;;;;;;6.45;4.45;;;;;;;;;;12982389;19;20855;-61
2023/06/18 01:19:49;;;;;;;8.68;4.97;;;;;;;;;;12981780;19;20014;-61
2023/06/18 01:24:19;;;;;;;8.27;4.72;;;;;;;;;;12982567;19;20094;-61
2023/06/18 01:28:40;;;;;;;8.25;5.20;;;;;;;;;;12981155;19;20242;-61
2023/06/18 01:32:58;;;;;;;8.55;4.75;;;;;;;;;;12978159;19;20018;-61
2023/06/18 01:37:53;;;;;;;5.95;4.53;;;;;;;;;;12982517;19;20770;-61
2023/06/18 01:42:16;;;;;;;7.43;4.88;;;;;;;;;;12982076;19;20871;-61
2023/06/18 01:46:35;;;;;;;7.40;5.05;;;;;;;;;;12983389;19;20018;-61
2023/06/18 01:50:54;;;;;;;7.55;4.57;;;;;;;;;;12982918;19;20030;-61
2023/06/18 01:55:12;;;;;;;8.05;5.05;;;;;;;;;;12980129;19;20098;-61
2023/06/18 01:59:31;;;;;;;8.38;5.70;;;;;;;;;;12983079;19;20018;-60
2023/06/18 02:03:49;;;;;;;;;;;;;;;;;;12983510;19;21007;-61
2023/06/18 02:08:07;;;;;;;6.55;4.93;;;;;;;;;;12980248;19;19923;-61
2023/06/18 02:12:25;;;;;;;6.15;4.43;;;;;;;;;;12981351;19;20052;-61
2023/06/18 02:16:43;;;;;;;6.80;4.47;;;;;;;;;;12980999;19;20170;-61
2023/06/18 02:21:02;;;;;;;6.45;4.32;;;;;;;;;;12980527;19;20022;-61
2023/06/18 02:25:28;;;;;;;6.53;4.68;;;;;;;;;;12980955;19;20026;-61
2023/06/18 02:29:47;;;;;;;10.43;5.00;;;;;;;;;;12980207;19;20033;-61
2023/06/18 02:34:05;;;;;;;7.28;5.03;;;;;;;;;;12979556;19;20019;-61
2023/06/18 02:38:23;;;;;;;;;;;;;;;;;;12981212;19;20044;-61
2023/06/18 02:42:49;;;;;;;10.95;4.68;;;;;;;;;;12978287;19;20717;-61
2023/06/18 02:47:07;;;;;;;6.00;4.80;;;;;;;;;;12979549;19;20015;-61
2023/06/18 02:51:26;;;;;;;7.65;4.95;;;;;;;;;;12979401;19;20031;-61
2023/06/18 02:55:45;;;;;;;8.35;5.15;;;;;;;;;;12978266;19;20453;-60
2023/06/18 03:00:09;;;;;;;8.70;4.68;;;;;;;;;;12978416;19;20027;-60
2023/06/18 03:04:27;;;;;;;7.55;4.75;;;;;;;;;;12978439;19;20086;-59
2023/06/18 03:08:46;;;;;;;;;;;;;;;;;;12978630;19;20666;-60
2023/06/18 03:13:04;;;;;;;7.53;4.55;;;;;;;;;;12976967;19;19918;-60
2023/06/18 03:17:21;;;;;;;5.35;3.95;;;;;;;;;;12978079;19;20055;-60
2023/06/18 03:21:40;;;;;;;7.10;4.60;;;;;;;;;;12978574;19;20044;-60
2023/06/18 03:25:58;;;;;;;7.43;4.47;;;;;;;;;;12978448;19;20010;-61
2023/06/18 03:30:16;;;;;;;7.20;4.60;;;;;;;;;;12976671;19;20462;-60
2023/06/18 03:34:35;;;;;;;8.10;4.65;;;;;;;;;;12977062;19;20019;-61
2023/06/18 03:38:53;;;;;;;8.50;5.18;;;;;;;;;;12977215;19;20129;-61
2023/06/18 03:43:11;;;;;;;9.25;4.82;;;;;;;;;;12974533;19;20549;-61
2023/06/18 03:47:30;;;;;;;7.47;4.45;;;;;;;;;;12977915;19;20014;-61
2023/06/18 03:51:50;;;;;;;8.50;5.30;;;;;;;;;;12974508;19;20022;-61
2023/06/18 03:56:10;;;;;;;6.53;4.13;;;;;;;;;;12972533;19;20439;-61
2023/06/18 04:00:28;;;;;;;9.65;5.28;;;;;;;;;;12975868;19;20018;-61
2023/06/18 04:04:46;;;;;;;8.55;5.35;;;;;;;;;;12975114;19;20095;-61
2023/06/18 04:09:03;;;;;;;10.55;5.93;;;;;;;;;;12975169;19;20027;-61
2023/06/18 04:13:22;;;;;;;8.35;5.43;;;;;;;;;;12974911;19;20045;-61
2023/06/18 04:17:41;;;;;;;8.70;5.53;;;;;;;;;;12975082;19;20035;-61
2023/06/18 04:21:59;;;;;;;10.98;6.50;;;;;;;;;;12975005;19;20039;-61
2023/06/18 04:26:17;;;;;;;8.10;5.90;;;;;;;;;;12973881;19;20656;-61
2023/06/18 04:30:35;;;;;;;10.80;6.35;;;;;;;;;;12973780;19;20022;-61
2023/06/18 04:34:54;;;;;;;11.05;6.50;;;;;;;;;;12973652;19;20868;-63
2023/06/18 04:39:13;;;;;;;15.48;6.80;;;;;;;;;;12971975;19;20183;-61
2023/06/18 04:43:32;;;;;;;11.80;7.50;;;;;;;;;;12972018;19;20117;-62
2023/06/18 04:47:51;;;;;;;12.32;7.72;;;;;;;;;;12973157;19;20858;-61
2023/06/18 04:52:10;;;;;;;10.15;7.50;;;;;;;;;;12972854;19;20014;-61
2023/06/18 04:56:28;;;;;;;12.63;8.45;;;;;;;;;;12973202;19;20078;-61
2023/06/18 05:00:46;;;;;;;12.27;8.20;;;;;;;;;;12973010;19;20019;-61
2023/06/18 05:05:04;;;;;;;11.82;7.82;;;;;;;;;;12976038;19;20731;-61
2023/06/18 05:09:23;;;;;;;13.13;9.00;;;;;;;;;;12985631;19;20144;-61
2023/06/18 05:13:40;;;;;;;14.48;8.88;;;;;;;;;;12985286;19;20133;-61
2023/06/18 05:17:58;;;;;;;13.80;9.57;;;;;;;;;;12984923;19;20027;-60
2023/06/18 05:22:16;;;;;;;11.35;8.50;;;;;;;;;;12983541;19;20043;-60
2023/06/18 05:26:34;;;;;;;14.32;8.35;;;;;;;;;;12983871;19;20031;-60
2023/06/18 05:30:52;;;;;;;16.50;8.20;;;;;;;;;;12983856;19;20018;-60
2023/06/18 05:35:11;;;;;;;13.27;8.70;;;;;;;;;;12982935;19;20018;-61
2023/06/18 05:39:29;;;;;;;13.40;8.02;;;;;;;;;;12983912;19;20036;-60
2023/06/18 05:43:47;;;;;;;;;;;;;;;;;;12983346;19;20031;-61
2023/06/18 05:48:11;;;;;;;13.75;7.20;;;;;;;;;;12982935;19;20283;-61
2023/06/18 05:52:30;;;;;;;15.18;8.13;;;;;;;;;;12982596;19;20764;-61
2023/06/18 05:56:48;;;;;;;;;;;;;;;;;;12982552;19;20759;-61
2023/06/18 06:01:05;;;;;;;10.57;7.18;;;;;;;;;;12981975;19;20038;-61
2023/06/18 06:05:24;;;;;;;12.65;7.30;;;;;;;;;;12981613;19;20825;-62
2023/06/18 06:09:43;;;;;;;12.18;6.57;;;;;;;;;;12981776;19;20031;-61
2023/06/18 06:14:01;;;;;;;9.90;7.03;;;;;;;;;;12979928;19;20022;-63
2023/06/18 06:18:19;;;;;;;13.15;7.65;;;;;;;;;;12979485;19;20031;-61
2023/06/18 06:22:37;;;;;;;13.23;7.57;;;;;;;;;;12980786;19;20856;-62
2023/06/18 06:26:55;;;;;;;10.30;6.72;;;;;;;;;;12981834;19;20030;-62
2023/06/18 06:31:13;;;;;;;9.45;5.60;;;;;;;;;;12980115;19;20422;-62
2023/06/18 06:35:31;;;;;;;10.32;5.15;;;;;;;;;;12980190;19;20018;-61
2023/06/18 06:39:49;;;;;;;10.05;4.93;;;;;;;;;;12979862;19;20017;-62
2023/06/18 06:44:08;;;;;;;10.98;7.05;;;;;;;;;;12978169;19;20015;-61
2023/06/18 06:48:27;;;;;;;8.18;5.72;;;;;;;;;;12980339;19;20920;-62
2023/06/18 06:52:45;;;;;;;10.13;5.53;;;;;;;;;;12978870;19;20113;-62
2023/06/18 06:57:03;;;;;;;9.52;5.63;;;;;;;;;;12979354;19;20888;-62
2023/06/18 07:01:21;;;;;;;8.35;5.22;;;;;;;;;;12978844;19;20051;-61
2023/06/18 07:05:40;;;;;;;10.55;4.40;;;;;;;;;;12979132;19;20018;-62
2023/06/18 07:09:57;;;;;;;;;;;;;;;;;;12979515;19;20050;-61
2023/06/18 07:14:15;;;;;;;9.85;4.93;;;;;;;;;;12976972;19;19994;-62
2023/06/18 07:18:33;;;;;;;4.68;3.50;;;;;;;;;;12978294;19;20014;-62
2023/06/18 07:22:51;;;;;;;7.38;4.25;;;;;;;;;;12977806;19;20019;-62
2023/06/18 07:27:10;;;;;;;5.28;4.18;;;;;;;;;;12976885;19;20014;-61
2023/06/18 07:31:28;;;;;;;4.60;3.38;;;;;;;;;;12977907;19;20014;-62
2023/06/18 07:35:45;;;;;;;5.07;3.83;;;;;;;;;;12976323;19;20023;-62
2023/06/18 07:40:05;;;;;;;9.90;5.28;;;;;;;;;;12976781;19;20051;-62
2023/06/18 07:44:23;;;;;;;7.35;3.85;;;;;;;;;;12975204;19;20415;-62
2023/06/18 07:48:42;;;;;;;4.65;2.97;;;;;;;;;;12976531;19;20133;-62
2023/06/18 07:53:00;;;;;;;6.93;4.20;;;;;;;;;;12976212;19;20121;-62
2023/06/18 07:57:19;;;;;;;7.90;3.70;;;;;;;;;;12975758;19;20089;-61
2023/06/18 08:01:38;;;;;;;8.73;5.25;;;;;;;;;;12976408;19;20407;-62
2023/06/18 08:05:58;;;;;;;8.38;5.32;;;;;;;;;;12975816;19;20074;-62
2023/06/18 08:10:16;;;;;;;8.73;4.70;;;;;;;;;;12974594;19;20751;-62
2023/06/18 08:14:34;;;;;;;11.50;4.22;;;;;;;;;;12973918;19;20125;-61
2023/06/18 08:18:53;;;;;;;7.78;4.20;;;;;;;;;;12973884;19;20039;-62
2023/06/18 08:23:10;;;;;;;6.55;4.07;;;;;;;;;;12973794;19;20771;-61
2023/06/18 08:27:28;;;;;;;5.15;3.53;;;;;;;;;;12974994;19;20015;-62
2023/06/18 08:31:46;;;;;;;5.72;3.95;;;;;;;;;;12974218;19;20023;-62
2023/06/18 08:36:05;;;;;;;6.45;3.88;;;;;;;;;;12973348;19;20019;-62
2023/06/18 08:40:26;;;;;;;7.60;4.03;;;;;;;;;;12979131;19;20014;-62
2023/06/18 08:44:46;;;;;;;5.90;3.70;;;;;;;;;;12985838;19;20469;-61
2023/06/18 08:49:06;;;;;;;4.90;3.17;;;;;;;;;;12986047;19;20018;-60
2023/06/18 08:53:39;;;;;;;6.47;2.80;;;;;;;;;;12985114;19;20350;-60
2023/06/18 08:58:08;;;;;;;4.78;2.92;;;;;;;;;;12983898;19;20006;-61
2023/06/18 09:02:28;;;;;;;7.93;3.85;;;;;;;;;;12985112;19;20801;-60
2023/06/18 09:06:47;;;;;;;7.65;3.70;;;;;;;;;;12985314;19;20014;-61
2023/06/18 09:11:06;;;;;;;7.75;2.90;;;;;;;;;;12984902;19;20015;-61
2023/06/18 09:15:25;;;;;;;4.88;3.08;;;;;;;;;;12985200;19;20014;-60
2023/06/18 09:19:44;;;;;;;5.03;2.75;;;;;;;;;;12984942;19;20014;-60
2023/06/18 09:24:05;;;;;;;4.75;3.42;;;;;;;;;;12983137;19;20022;-61
2023/06/18 09:28:27;;;;;;;6.90;3.75;;;;;;;;;;12984400;19;20003;-61
2023/06/18 09:32:47;;;;;;;5.70;3.13;;;;;;;;;;12984568;19;20042;-61
2023/06/18 09:37:08;;;;;;;4.50;3.63;;;;;;;;;;12982947;19;20018;-61
2023/06/18 09:41:27;;;;;;;4.38;2.63;;;;;;;;;;12982958;19;20467;-61
2023/06/18 09:45:47;;;;;;;6.60;3.65;;;;;;;;;;12982045;19;20137;-61
2023/06/18 09:50:08;;;;;;;6.70;3.65;;;;;;;;;;12981899;19;20028;-61
2023/06/18 09:54:39;;;;;;;7.13;3.90;;;;;;;;;;12980091;19;20027;-61
2023/06/18 09:58:58;;;;;;;5.15;3.10;;;;;;;;;;12982711;19;20026;-61
2023/06/18 10:03:22;;;;;;;5.22;3.15;;;;;;;;;;12983032;19;20015;-61
2023/06/18 10:07:42;;;;;;;4.07;3.00;;;;;;;;;;12982504;19;20027;-62
2023/06/18 10:12:03;;;;;;;5.72;3.42;;;;;;;;;;12982259;19;20039;-61
2023/06/18 10:16:21;;;;;;;9.63;3.95;;;;;;;;;;12982189;19;20038;-62
2023/06/18 10:20:41;;;;;;;7.93;3.53;;;;;;;;;;12981328;19;20060;-61
2023/06/18 10:25:06;;;;;;;6.15;3.53;;;;;;;;;;12978951;19;20907;-62
2023/06/18 10:29:25;;;;;;;4.07;2.92;;;;;;;;;;12980405;19;20358;-62
2023/06/18 10:33:45;;;;;;;5.43;3.30;;;;;;;;;;12980459;19;20036;-61
2023/06/18 10:38:04;;;;;;;4.85;3.55;;;;;;;;;;12976750;19;20909;-61
2023/06/18 10:42:23;;;;;;;6.18;3.25;;;;;;;;;;12977500;19;20036;-61
2023/06/18 10:46:43;;;;;;;4.40;3.20;;;;;;;;;;12979912;19;20133;-61
2023/06/18 10:51:16;;;;;;;6.63;3.58;;;;;;;;;;12979631;19;20015;-61
2023/06/18 10:55:34;;;;;;;6.15;3.63;;;;;;;;;;12979206;19;20033;-61
2023/06/18 10:59:56;;;;;;;7.80;4.07;;;;;;;;;;12980198;19;20797;-61
2023/06/18 11:04:17;;;;;;;5.93;3.25;;;;;;;;;;12977806;19;20047;-61
2023/06/18 11:08:37;;;;;;;9.52;3.38;;;;;;;;;;12979506;19;20018;-61
2023/06/18 11:12:56;;;;;;;4.50;3.05;;;;;;;;;;12978150;19;20105;-61
2023/06/18 11:17:17;;;;;;;5.38;3.40;;;;;;;;;;12975022;19;20125;-61
2023/06/18 11:21:37;;;;;;;5.75;3.53;;;;;;;;;;12976322;19;20113;-61
2023/06/18 11:25:55;;;;;;;5.70;3.30;;;;;;;;;;12977685;19;20014;-61
2023/06/18 11:30:15;;;;;;;2.95;2.30;;;;;;;;;;12977049;19;20468;-62
2023/06/18 11:34:41;;;;;;;6.28;2.70;;;;;;;;;;12977473;19;20052;-62
2023/06/18 11:39:01;;;;;;;4.07;2.60;;;;;;;;;;12977796;19;20082;-61
2023/06/18 11:43:20;;;;;;;4.20;2.55;;;;;;;;;;12976615;19;20064;-61
2023/06/18 11:47:46;;;;;;;2.40;2.13;;;;;;;;;;12977502;19;20042;-62
2023/06/18 11:52:05;;;;;;;4.10;2.55;;;;;;;;;;12976022;19;20026;-61
2023/06/18 11:56:29;;;;;;;4.72;2.60;;;;;;;;;;12976431;19;20088;-61
2023/06/18 12:00:47;;;;;;;3.70;2.42;;;;;;;;;;12982642;19;20297;-62
2023/06/18 12:05:06;;;;;;;5.00;2.50;;;;;;;;;;12981606;19;20361;-61
2023/06/18 12:09:35;;;;;;;3.10;2.45;;;;;;;;;;12981709;19;20042;-61
2023/06/18 12:13:53;;;;;;;;;;;;;;;;;;12980596;19;20014;-61
2023/06/18 12:18:23;;;;;;;;;;;;;;;;;;12980236;19;19932;-61
2023/06/18 12:22:41;;;;;;;;;;;;;;;;;;12981980;19;20298;-60
2023/06/18 12:26:59;;;;;;;;;;;;;;;;;;12980926;19;19919;-61
2023/06/18 12:31:18;;;;;;;;;;;;;;;;;;12979835;19;19926;-61
2023/06/18 12:35:40;;;;;;;;;;;;;;;;;;12980241;19;19938;-61
2023/06/18 12:40:18;;;;;;;;;;;;;;;;;;12981005;19;19927;-61
2023/06/18 12:44:38;;;;;;;;;;;;;;;;;;12979942;19;19915;-61
2023/06/18 12:48:57;;;;;;;;;;;;;;;;;;12980478;19;19946;-61
2023/06/18 12:53:17;;;;;;;;;;;;;;;;;;12979282;19;20035;-61
2023/06/18 12:57:36;;;;;;;;;;;;;;;;;;12977909;19;20261;-61
2023/06/18 13:01:55;;;;;;;;;;;;;;;;;;12978464;19;20284;-62
2023/06/18 13:06:13;;;;;;;;;;;;;;;;;;12978216;19;19941;-61
2023/06/18 13:10:31;;;;;;;;;;;;;;;;;;12979010;19;19922;-61
2023/06/18 13:14:49;;;;;;;;;;;;;;;;;;12978202;19;19910;-60
2023/06/18 13:19:08;;;;;;;;;;;;;;;;;;12977152;19;19922;-60
2023/06/18 13:23:27;;;;;;;;;;;;;;;;;;12977839;19;19921;-60
2023/06/18 13:27:45;;;;;;;;;;;;;;;;;;12985937;19;19911;-60
2023/06/18 13:32:03;;;;;;;;;;;;;;;;;;12988247;19;19915;-61
2023/06/18 13:36:22;;;;;;;;;;;;;;;;;;12988757;19;20461;-60
2023/06/18 13:40:40;;;;;;;;;;;;;;;;;;12989286;19;20349;-61
2023/06/18 13:44:59;;;;;;;;;;;;;;;;;;12989830;19;19922;-60
2023/06/18 13:49:16;;;;;;;;;;;;;;;;;;12990918;19;20325;-60
2023/06/18 13:53:35;;;;;;;;;;;;;;;;;;12990303;19;19922;-60
2023/06/18 13:57:52;;;;;;;;;;;;;;;;;;12988727;19;19918;-60
2023/06/18 14:02:12;;;;;;;;;;;;;;;;;;12989254;19;19914;-61
2023/06/18 14:06:29;;;;;;;;;;;;;;;;;;12989085;19;19950;-60
2023/06/18 14:10:47;;;;;;;;;;;;;;;;;;12988286;19;20258;-61
2023/06/18 14:15:05;;;;;;;;;;;;;;;;;;12987405;19;19922;-60
2023/06/18 14:19:24;;;;;;;;;;;;;;;;;;12987931;19;19999;-60
2023/06/18 14:23:44;;;;;;;;;;;;;;;;;;12985807;19;20658;-61
2023/06/18 14:29:34;;;;;;;2.22;1.92;;;;;;;;;;13024917;19;20853;-61
2023/06/18 14:33:53;;;;;;;2.67;1.77;;;;;;;;;;13047499;19;20415;-61
2023/06/18 14:38:26;;;;;;;5.32;1.98;;;;;;;;;;13033003;19;20082;-61
2023/06/18 14:42:44;;;;;;;2.15;1.67;;;;;;;;;;13033786;19;20082;-61
2023/06/18 14:47:02;;;;;;;;;;;;;;;;;;13034104;19;20124;-62
2023/06/18 14:51:20;;;;;;;5.05;3.65;;;;;;;;;;13038985;19;19922;-62
2023/06/18 14:55:37;;;;;;;3.03;2.28;;;;;;;;;;13039134;19;20046;-61
2023/06/18 14:59:57;;;;;;;40.63;9.90;;;;;;;;;;13038647;19;20031;-61
2023/06/18 15:04:15;;;;;;;14.68;8.43;;;;;;;;;;13038037;19;20107;-62
2023/06/18 15:08:34;;;;;;;5.53;3.60;;;;;;;;;;13037430;19;20947;-61
2023/06/18 15:12:53;;;;;;;5.25;2.95;;;;;;;;;;13038477;19;20021;-61
2023/06/18 15:17:12;;;;;;;3.97;2.65;;;;;;;;;;13035849;19;20090;-61
2023/06/18 15:21:29;;;;;;;;;;;;;;;;;;13038288;19;20017;-62
2023/06/18 15:25:50;;;;;;;3.33;2.17;;;;;;;;;;13035512;19;19990;-63
2023/06/18 15:30:09;;;;;;;2.05;1.75;;;;;;;;;;13033527;19;20819;-63
2023/06/18 15:34:27;;;;;;;2.88;2.45;;;;;;;;;;13036934;19;20045;-62
2023/06/18 15:38:47;;;;;;;2.92;2.20;;;;;;;;;;13009656;19;20034;-62
2023/06/18 15:43:05;;;;;;;5.85;2.13;;;;;;;;;;12984342;19;20023;-62
2023/06/18 15:47:23;;;;;;;6.13;2.17;;;;;;;;;;12983924;19;20861;-62
2023/06/18 15:51:41;;;;;;;2.33;2.03;;;;;;;;;;12984732;19;20038;-62
2023/06/18 15:55:59;;;;;;;3.33;2.15;;;;;;;;;;12984645;19;20015;-62
2023/06/18 16:00:16;;;;;;;;;;;;;;;;;;12984485;19;20580;-61
2023/06/18 16:04:35;;;;;;;2.55;2.00;;;;;;;;;;12984708;19;19915;-61
2023/06/18 16:08:53;;;;;;;4.50;2.10;;;;;;;;;;12983056;19;20018;-62
2023/06/18 16:13:12;;;;;;;2.88;2.20;;;;;;;;;;12983216;19;20024;-62
2023/06/18 16:17:30;;;;;;;2.85;1.95;;;;;;;;;;12983756;19;20032;-61
2023/06/18 16:21:48;;;;;;;3.67;2.40;;;;;;;;;;12983339;19;20469;-61
2023/06/18 16:26:06;;;;;;;4.50;2.60;;;;;;;;;;12981146;19;20026;-63
2023/06/18 16:30:25;;;;;;;;;;;;;;;;;;12983170;19;20901;-61
2023/06/18 16:34:43;;;;;;;4.43;2.40;;;;;;;;;;12981984;19;19932;-62
2023/06/18 16:39:02;;;;;;;3.45;2.75;;;;;;;;;;12981710;19;20865;-62
2023/06/18 16:43:21;;;;;;;3.28;2.28;;;;;;;;;;12982375;19;20046;-63
2023/06/18 16:47:38;;;;;;;;;;;;;;;;;;12981851;19;20704;-62
2023/06/18 16:51:56;;;;;;;5.22;3.03;;;;;;;;;;12979147;19;20362;-61
2023/06/18 16:56:14;;;;;;;4.60;2.78;;;;;;;;;;12981316;19;20035;-62
2023/06/18 17:00:32;;;;;;;5.43;3.03;;;;;;;;;;12980855;19;20046;-62
2023/06/18 17:04:52;;;;;;;5.38;3.03;;;;;;;;;;12981759;19;20457;-62
2023/06/18 17:09:11;;;;;;;4.93;2.80;;;;;;;;;;12979811;19;20052;-62
2023/06/18 17:13:31;;;;;;;4.63;2.65;;;;;;;;;;12980244;19;20809;-61
2023/06/18 17:17:49;;;;;;;7.95;3.03;;;;;;;;;;12980036;19;20044;-61
2023/06/18 17:22:09;;;;;;;;;;;;;;;;;;12979697;19;20375;-62
2023/06/18 17:26:31;;;;;;;5.43;3.08;;;;;;;;;;12978522;19;20019;-61
2023/06/18 17:30:49;;;;;;;8.05;4.20;;;;;;;;;;12979268;19;20018;-61
2023/06/18 17:35:07;;;;;;;;;;;;;;;;;;12978547;19;20039;-63
2023/06/18 17:39:24;;;;;;;10.88;4.82;;;;;;;;;;12979582;19;19928;-61
2023/06/18 17:43:42;;;;;;;6.03;3.75;;;;;;;;;;12976879;19;20161;-62
2023/06/18 17:48:00;;;;;;;9.88;4.15;;;;;;;;;;12978619;19;20916;-61
2023/06/18 17:52:19;;;;;;;14.98;5.97;;;;;;;;;;12978474;19;20010;-62
2023/06/18 17:56:37;;;;;;;10.00;5.07;;;;;;;;;;12978280;19;20007;-62
2023/06/18 18:00:56;;;;;;;9.55;5.30;;;;;;;;;;12977007;19;20047;-62
2023/06/18 18:05:13;;;;;;;10.50;5.10;;;;;;;;;;12976844;19;20031;-62
2023/06/18 18:09:33;;;;;;;8.82;5.07;;;;;;;;;;12977768;19;20055;-61
2023/06/18 18:13:55;;;;;;;6.75;4.18;;;;;;;;;;12977696;19;20014;-61
2023/06/18 18:18:13;;;;;;;7.32;4.10;;;;;;;;;;12977256;19;20022;-61
2023/06/18 18:22:32;;;;;;;7.80;3.92;;;;;;;;;;12977717;19;20485;-61
2023/06/18 18:26:51;;;;;;;6.82;3.95;;;;;;;;;;12976521;19;20565;-62
2023/06/18 18:31:10;;;;;;;4.90;2.67;;;;;;;;;;12976021;19;20501;-61
2023/06/18 18:35:27;;;;;;;4.55;3.00;;;;;;;;;;12976570;19;20021;-62
2023/06/18 18:39:45;;;;;;;4.15;2.85;;;;;;;;;;12975605;19;20765;-62
2023/06/18 18:44:04;;;;;;;4.55;2.60;;;;;;;;;;12975264;19;20014;-61
2023/06/18 18:48:22;;;;;;;5.18;3.10;;;;;;;;;;12975811;19;20027;-60
2023/06/18 18:52:40;;;;;;;5.47;3.58;;;;;;;;;;12975411;19;20030;-61
2023/06/18 18:56:58;;;;;;;4.07;3.13;;;;;;;;;;12975487;19;20019;-61
2023/06/18 19:01:16;;;;;;;4.68;3.03;;;;;;;;;;12974890;19;20473;-60
2023/06/18 19:05:35;;;;;;;5.05;2.90;;;;;;;;;;12975924;19;20049;-61
2023/06/18 19:09:52;;;;;;;3.50;2.60;;;;;;;;;;12974060;19;20018;-60
2023/06/18 19:14:11;;;;;;;4.25;2.83;;;;;;;;;;12981246;19;20088;-60
2023/06/18 19:18:29;;;;;;;5.82;3.17;;;;;;;;;;12988270;19;20014;-60
2023/06/18 19:22:50;;;;;;;4.53;2.90;;;;;;;;;;12984014;19;20010;-61
2023/06/18 19:27:08;;;;;;;5.47;3.15;;;;;;;;;;12984605;19;20018;-61
2023/06/18 19:31:26;;;;;;;4.30;2.58;;;;;;;;;;12986905;19;20010;-61
2023/06/18 19:35:44;;;;;;;4.20;3.10;;;;;;;;;;12985694;19;20015;-61
2023/06/18 19:40:03;;;;;;;4.13;3.20;;;;;;;;;;12985398;19;20636;-61
2023/06/18 19:44:23;;;;;;;4.00;3.45;;;;;;;;;;12985233;19;20064;-61
2023/06/18 19:48:41;;;;;;;3.72;2.80;;;;;;;;;;12985144;19;20022;-61
2023/06/18 19:53:01;;;;;;;4.25;3.20;;;;;;;;;;12986683;19;20031;-61
2023/06/18 19:57:18;;;;;;;4.32;2.88;;;;;;;;;;12985805;19;20007;-62
2023/06/18 20:01:39;;;;;;;5.07;3.13;;;;;;;;;;12985031;19;20011;-61
2023/06/18 20:05:57;;;;;;;5.93;3.05;;;;;;;;;;12984987;19;20655;-61
2023/06/18 20:10:15;;;;;;;4.93;3.53;;;;;;;;;;12983250;19;20018;-62
2023/06/18 20:14:33;;;;;;;;;;;;;;;;;;12985358;19;20037;-61
2023/06/18 20:18:51;;;;;;;6.43;3.80;;;;;;;;;;12984268;19;20274;-61
2023/06/18 20:23:12;;;;;;;7.32;3.92;;;;;;;;;;12982678;19;20029;-61
2023/06/18 20:27:31;;;;;;;5.18;3.63;;;;;;;;;;12980642;19;20042;-61
2023/06/18 20:31:50;;;;;;;7.82;3.85;;;;;;;;;;12983607;19;20029;-61
2023/06/18 20:36:08;;;;;;;6.22;3.85;;;;;;;;;;12982949;19;20018;-60
2023/06/18 20:40:26;;;;;;;5.60;3.78;;;;;;;;;;12983945;19;20082;-60
2023/06/18 20:44:44;;;;;;;5.03;3.47;;;;;;;;;;12983332;19;20113;-61
2023/06/18 20:49:01;;;;;;;7.05;3.45;;;;;;;;;;12981375;19;20482;-61
2023/06/18 20:53:19;;;;;;;;;;;;;;;;;;12980342;19;20117;-61
2023/06/18 20:57:38;;;;;;;6.25;3.33;;;;;;;;;;12981731;19;19927;-60
2023/06/18 21:01:56;;;;;;;6.13;3.40;;;;;;;;;;12980531;19;20035;-60
2023/06/18 21:06:13;;;;;;;;;;;;;;;;;;12981425;19;20022;-60
2023/06/18 21:10:32;;;;;;;3.92;3.10;;;;;;;;;;12981518;19;19922;-60
2023/06/18 21:14:51;;;;;;;5.78;3.53;;;;;;;;;;12981258;19;20018;-60
2023/06/18 21:19:10;;;;;;;4.28;3.47;;;;;;;;;;12980399;19;20031;-60
2023/06/18 21:23:27;;;;;;;;;;;;;;;;;;12981752;19;20014;-61
2023/06/18 21:27:46;;;;;;;6.75;4.53;;;;;;;;;;12979461;19;19931;-60
2023/06/18 21:32:04;;;;;;;6.18;4.00;;;;;;;;;;12979651;19;20015;-61
2023/06/18 21:36:23;;;;;;;5.70;3.65;;;;;;;;;;12978743;19;20023;-60
2023/06/18 21:40:41;;;;;;;7.60;3.70;;;;;;;;;;12979850;19;20433;-61
2023/06/18 21:44:59;;;;;;;4.93;3.50;;;;;;;;;;12978820;19;20018;-61
2023/06/18 21:49:17;;;;;;;6.05;3.95;;;;;;;;;;12977730;19;21100;-61
2023/06/18 21:53:35;;;;;;;4.75;3.58;;;;;;;;;;12979540;19;20052;-60
2023/06/18 21:57:54;;;;;;;5.95;3.80;;;;;;;;;;12978534;19;20415;-61
2023/06/18 22:02:12;;;;;;;4.65;3.53;;;;;;;;;;12976227;19;20055;-60
2023/06/18 22:06:30;;;;;;;8.88;5.10;;;;;;;;;;12978267;19;20498;-60
2023/06/18 22:10:47;;;;;;;6.93;4.07;;;;;;;;;;12977603;19;20022;-60
2023/06/18 22:15:07;;;;;;;5.47;3.58;;;;;;;;;;12978229;19;20022;-60
2023/06/18 22:19:24;;;;;;;6.93;3.85;;;;;;;;;;12977921;19;20026;-60
2023/06/18 22:23:43;;;;;;;7.18;4.40;;;;;;;;;;12966485;19;20062;-60
2023/06/18 22:28:02;;;;;;;6.45;3.88;;;;;;;;;;12970777;19;20028;-61
2023/06/18 22:32:21;;;;;;;4.82;3.70;;;;;;;;;;12977281;19;20022;-60
2023/06/18 22:36:39;;;;;;;5.43;3.97;;;;;;;;;;12976971;19;20034;-60
2023/06/18 22:40:57;;;;;;;;;;;;;;;;;;12977252;19;20368;-60
2023/06/18 22:45:15;;;;;;;6.80;4.55;;;;;;;;;;12975124;19;19919;-59
2023/06/18 22:49:35;;;;;;;6.15;3.85;;;;;;;;;;12983220;19;20891;-60
2023/06/18 22:53:53;;;;;;;5.15;4.00;;;;;;;;;;12988297;19;20044;-60
2023/06/18 22:58:12;;;;;;;7.13;4.03;;;;;;;;;;12987751;19;20018;-60
2023/06/18 23:02:36;;;;;;;5.28;3.72;;;;;;;;;;12988153;19;20022;-59
2023/06/18 23:06:55;;;;;;;5.72;3.70;;;;;;;;;;12988604;19;20018;-60
2023/06/18 23:11:12;;;;;;;7.70;3.63;;;;;;;;;;12986863;19;20015;-61
2023/06/18 23:15:30;;;;;;;7.80;4.55;;;;;;;;;;12987557;19;20014;-60
2023/06/18 23:19:49;;;;;;;6.90;4.55;;;;;;;;;;12987581;19;20035;-61
2023/06/18 23:24:10;;;;;;;5.18;3.50;;;;;;;;;;12986463;19;20018;-60
2023/06/18 23:28:31;;;;;;;7.07;4.18;;;;;;;;;;12985803;19;20034;-60
2023/06/18 23:32:50;;;;;;;6.75;3.55;;;;;;;;;;12986561;19;20048;-60
2023/06/18 23:37:10;;;;;;;7.50;4.13;;;;;;;;;;12985528;19;20031;-61
2023/06/18 23:41:28;;;;;;;6.10;3.88;;;;;;;;;;12986177;19;20041;-63
2023/06/18 23:45:47;;;;;;;5.38;3.50;;;;;;;;;;12986111;19;20039;-65
2023/06/18 23:50:06;;;;;;;6.32;3.75;;;;;;;;;;12983298;19;20027;-64
2023/06/18 23:54:25;;;;;;;7.28;3.75;;;;;;;;;;12985802;19;20523;-64
2023/06/18 23:58:44;;;;;;;4.25;3.53;;;;;;;;;;12984385;19;20689;-64
